Time;durP1;ratioP1;P1;durP2;ratioP2;P2;SDS_P1;SDS_P2;PMS_P1;PMS_P2;Temp;Humidity;BMP_temperature;BMP_pressure;BME280_temperature;BME280_humidity;BME280_pressure;Samples;Min_cycle;Max_cycle;Signal;HPM_P1;HPM_P2
2022/03/11 00:01:56;;;;;;;22.60;10.40;;;;;;;-5.47;63.07;100169.32;105831;1280;22627;-72
2022/03/11 00:04:25;;;;;;;24.90;10.70;;;;;;;-5.44;63.03;100168.94;106112;1278;138115;-72
2022/03/11 00:06:51;;;;;;;22.70;9.20;;;;;;;-5.40;62.94;100168.83;106102;1277;22671;-72
2022/03/11 00:09:18;;;;;;;24.90;9.40;;;;;;;-5.38;62.80;100172.77;106133;1277;138218;-72
2022/03/11 00:11:44;;;;;;;19.90;9.00;;;;;;;-5.39;62.79;100173.03;105920;1277;22806;-72
2022/03/11 00:14:10;;;;;;;24.10;9.90;;;;;;;-5.43;62.57;100170.77;105888;1280;22857;-72
2022/03/11 00:16:37;;;;;;;23.30;8.10;;;;;;;-5.47;62.47;100166.80;105793;1281;138405;-71
2022/03/11 00:19:03;;;;;;;20.30;8.20;;;;;;;-5.51;62.59;100164.08;105808;1280;22576;-72
2022/03/11 00:21:31;;;;;;;18.60;8.20;;;;;;;-5.56;62.27;100165.56;105855;1280;138211;-72
2022/03/11 00:23:57;;;;;;;21.90;8.30;;;;;;;-5.60;62.32;100162.52;106021;1278;22628;-72
2022/03/11 00:26:24;;;;;;;25.50;9.40;;;;;;;-5.65;62.32;100162.27;106055;1277;25506;-72
2022/03/11 00:28:51;;;;;;;19.50;8.60;;;;;;;-5.68;62.30;100160.41;105897;1278;137849;-72
2022/03/11 00:31:18;;;;;;;22.50;9.70;;;;;;;-5.72;62.26;100160.09;105935;1278;24225;-72
2022/03/11 00:33:44;;;;;;;23.10;9.00;;;;;;;-5.76;62.63;100154.67;105886;1277;138754;-72
2022/03/11 00:36:10;;;;;;;22.10;9.20;;;;;;;-5.79;62.49;100158.58;105940;1277;23080;-72
2022/03/11 00:38:36;;;;;;;19.60;7.00;;;;;;;-5.81;62.78;100157.83;106093;1277;23928;-72
2022/03/11 00:41:03;;;;;;;19.70;8.10;;;;;;;-5.85;62.54;100157.08;105804;1277;138239;-72
2022/03/11 00:43:29;;;;;;;22.70;8.40;;;;;;;-5.90;62.40;100163.20;105978;1277;25522;-72
2022/03/11 00:45:55;;;;;;;18.40;7.90;;;;;;;-5.94;62.74;100159.18;105942;1277;137999;-73
2022/03/11 00:48:23;;;;;;;26.00;10.00;;;;;;;-5.98;62.93;100157.87;106048;1277;23221;-72
2022/03/11 00:50:50;;;;;;;20.50;7.90;;;;;;;-6.01;62.91;100157.58;105816;1277;24344;-72
2022/03/11 00:53:16;;;;;;;26.20;10.10;;;;;;;-6.04;62.96;100155.98;106046;1277;138058;-72
2022/03/11 00:55:42;;;;;;;20.20;9.30;;;;;;;-6.05;62.80;100156.76;106038;1277;22645;-72
2022/03/11 00:58:09;;;;;;;26.50;9.80;;;;;;;-6.04;63.16;100157.54;105812;1277;139053;-72
2022/03/11 01:00:36;;;;;;;23.00;9.00;;;;;;;-6.00;63.12;100156.25;106032;1277;22854;-72
2022/03/11 01:03:02;;;;;;;22.40;9.30;;;;;;;-5.95;63.34;100159.08;106040;1280;139567;-72
2022/03/11 01:05:28;;;;;;;20.10;9.50;;;;;;;-5.92;63.36;100157.45;106101;1277;22649;-73
2022/03/11 01:07:56;;;;;;;22.90;9.70;;;;;;;-5.87;62.98;100157.55;105898;1278;24265;-73
2022/03/11 01:10:23;;;;;;;22.60;10.50;;;;;;;-5.84;63.05;100165.63;105915;1277;139228;-73
2022/03/11 01:12:49;;;;;;;21.40;9.60;;;;;;;-5.80;63.16;100158.98;105943;1278;22814;-72
2022/03/11 01:15:16;;;;;;;23.50;10.10;;;;;;;-5.77;63.04;100157.73;105844;1277;138098;-72
2022/03/11 01:17:42;;;;;;;29.20;10.00;;;;;;;-5.75;62.87;100157.42;106071;1277;22548;-73
2022/03/11 01:20:12;;;;;;;24.80;9.90;;;;;;;-5.74;62.97;100146.61;105862;1277;22743;-70
2022/03/11 01:22:39;;;;;;;24.70;9.70;;;;;;;-5.76;62.80;100151.71;105996;1278;138354;-72
2022/03/11 01:25:07;;;;;;;27.10;10.50;;;;;;;-5.79;62.98;100150.48;106118;1277;22550;-72
2022/03/11 01:27:36;;;;;;;29.70;10.70;;;;;;;-5.81;62.97;100151.82;105890;1277;138216;-72
2022/03/11 01:30:05;;;;;;;25.40;10.20;;;;;;;-5.85;63.10;100150.19;105904;1280;25377;-72
2022/03/11 01:32:46;;;;;;;22.60;9.70;;;;;;;-5.90;63.13;100150.82;106136;1277;25380;-72
2022/03/11 01:35:12;;;;;;;25.00;9.10;;;;;;;-5.95;63.35;100149.73;106020;1277;138166;-72
2022/03/11 01:37:40;;;;;;;28.30;10.00;;;;;;;-5.99;63.30;100153.89;105916;1277;24364;-72
2022/03/11 01:40:07;;;;;;;24.70;10.40;;;;;;;-6.04;63.54;100150.86;105934;1280;138145;-72
2022/03/11 01:42:34;;;;;;;29.70;11.30;;;;;;;-6.10;63.65;100152.48;105921;1277;22569;-72
2022/03/11 01:45:01;;;;;;;20.20;8.70;;;;;;;-6.17;63.72;100153.42;106117;1277;138292;-72
2022/03/11 01:47:28;;;;;;;29.30;11.60;;;;;;;-6.26;64.19;100154.16;106164;1277;22549;-72
2022/03/11 01:49:54;;;;;;;24.40;9.50;;;;;;;-6.31;64.33;100153.05;105854;1278;25388;-72
2022/03/11 01:52:22;;;;;;;24.90;10.30;;;;;;;-6.36;64.18;100152.13;105774;1277;138606;-72
2022/03/11 01:55:04;;;;;;;25.30;11.50;;;;;;;-6.40;64.21;100157.66;106034;1278;22791;-74
2022/03/11 01:57:39;;;;;;;24.30;10.80;;;;;;;-6.40;64.37;100157.65;105989;1277;139449;-72
2022/03/11 02:00:08;;;;;;;22.80;11.60;;;;;;;-6.37;64.80;100154.13;106204;1277;23068;-73
2022/03/11 02:02:38;;;;;;;21.70;9.80;;;;;;;-6.30;65.12;100156.52;105973;1278;22581;-72
2022/03/11 02:05:05;;;;;;;23.30;10.90;;;;;;;-6.22;64.73;100158.04;106013;1280;138944;-73
2022/03/11 02:07:48;;;;;;;21.80;9.20;;;;;;;-6.17;64.78;100156.77;106209;1277;25481;-72
2022/03/11 02:10:14;;;;;;;34.10;11.80;;;;;;;-6.08;64.75;100159.80;105875;1278;138783;-72
2022/03/11 02:12:57;;;;;;;26.50;10.20;;;;;;;-5.98;64.98;100164.05;105915;1280;22608;-72
2022/03/11 02:15:24;;;;;;;26.20;10.90;;;;;;;-5.89;64.63;100168.30;105683;1278;138707;-72
2022/03/11 02:17:50;;;;;;;25.60;11.00;;;;;;;-5.87;64.52;100167.23;105923;1277;25305;-72
2022/03/11 02:20:16;;;;;;;23.20;10.40;;;;;;;-5.86;64.07;100163.29;106041;1277;25444;-72
2022/03/11 02:22:50;;;;;;;25.30;11.90;;;;;;;-5.87;64.00;100163.17;106307;1277;138638;-73
2022/03/11 02:25:31;;;;;;;23.30;9.90;;;;;;;-5.92;63.77;100166.66;105842;1280;22769;-72
2022/03/11 02:27:57;;;;;;;26.90;10.80;;;;;;;-5.97;63.86;100171.42;105949;1277;137976;-72
2022/03/11 02:30:24;;;;;;;26.30;10.50;;;;;;;-6.02;64.19;100173.88;106139;1277;24224;-72
2022/03/11 02:32:50;;;;;;;25.00;11.00;;;;;;;-6.07;64.10;100174.23;106004;1277;22756;-72
2022/03/11 02:35:18;;;;;;;23.00;10.60;;;;;;;-6.14;64.09;100172.83;105884;1280;138423;-72
2022/03/11 02:37:44;;;;;;;24.00;11.30;;;;;;;-6.19;64.47;100169.85;105985;1278;24323;-72
2022/03/11 02:40:11;;;;;;;25.70;11.30;;;;;;;-6.25;64.45;100168.30;105960;1277;138271;-72
2022/03/11 02:42:37;;;;;;;29.00;11.10;;;;;;;-6.32;64.67;100170.06;105969;1278;23052;-72
2022/03/11 02:45:06;;;;;;;25.50;9.00;;;;;;;-6.37;65.20;100173.23;105740;1278;138553;-72
2022/03/11 02:47:33;;;;;;;27.00;11.00;;;;;;;-6.43;64.65;100175.18;106100;1277;22584;-72
2022/03/11 02:50:00;;;;;;;26.70;11.50;;;;;;;-6.48;64.90;100170.92;106158;1277;22711;-72
2022/03/11 02:52:41;;;;;;;27.30;11.60;;;;;;;-6.51;65.25;100167.52;105900;1277;140211;-72
2022/03/11 02:55:08;;;;;;;20.80;10.00;;;;;;;-6.50;65.30;100172.94;105970;1278;25422;-72
2022/03/11 02:57:34;;;;;;;27.30;11.20;;;;;;;-6.48;65.25;100171.06;105900;1277;139191;-72
2022/03/11 03:00:02;;;;;;;21.60;10.10;;;;;;;-6.46;65.46;100171.16;105869;1277;25423;-73
2022/03/11 03:02:28;;;;;;;20.80;10.00;;;;;;;-6.42;65.70;100171.24;105922;1280;23004;-73
2022/03/11 03:04:55;;;;;;;27.50;11.50;;;;;;;-6.36;65.75;100173.89;105687;1280;138631;-73
2022/03/11 03:07:21;;;;;;;23.60;10.90;;;;;;;-6.32;65.63;100179.45;105946;1277;22548;-73
2022/03/11 03:09:48;;;;;;;23.70;10.00;;;;;;;-6.26;65.57;100176.29;105825;1277;138456;-72
2022/03/11 03:12:14;;;;;;;26.70;11.30;;;;;;;-6.26;65.30;100175.79;105893;1278;22652;-73
2022/03/11 03:14:40;;;;;;;24.30;9.60;;;;;;;-6.27;65.43;100174.58;106044;1278;22623;-72
2022/03/11 03:17:07;;;;;;;27.70;10.40;;;;;;;-6.32;65.31;100173.27;105775;1277;138059;-72
2022/03/11 03:19:35;;;;;;;28.50;10.90;;;;;;;-6.39;65.42;100172.60;105864;1278;22541;-73
2022/03/11 03:22:04;;;;;;;24.70;9.80;;;;;;;-6.45;65.38;100168.79;105920;1278;138177;-72
2022/03/11 03:24:30;;;;;;;19.70;8.30;;;;;;;-6.49;65.16;100173.43;105958;1277;22572;-72
2022/03/11 03:26:57;;;;;;;29.20;11.30;;;;;;;-6.56;65.16;100170.49;105832;1278;138051;-73
2022/03/11 03:29:23;;;;;;;25.00;9.90;;;;;;;-6.62;65.43;100169.46;106003;1277;25569;-73
2022/03/11 03:31:50;;;;;;;25.40;10.40;;;;;;;-6.69;65.44;100169.72;105876;1277;26218;-73
2022/03/11 03:34:16;;;;;;;28.40;10.10;;;;;;;-6.77;65.49;100171.05;105722;1278;138234;-72
2022/03/11 03:36:42;;;;;;;24.60;9.40;;;;;;;-6.83;65.76;100168.26;105792;1278;23682;-73
2022/03/11 03:39:08;;;;;;;29.60;11.50;;;;;;;-6.90;65.97;100168.98;105807;1277;138446;-72
2022/03/11 03:41:35;;;;;;;23.60;11.10;;;;;;;-6.93;66.23;100171.98;105989;1277;25382;-72
2022/03/11 03:44:01;;;;;;;22.90;10.30;;;;;;;-6.94;66.54;100170.98;105889;1278;25391;-72
2022/03/11 03:46:27;;;;;;;25.70;10.00;;;;;;;-6.93;66.12;100164.95;105578;1278;138556;-73
2022/03/11 03:48:54;;;;;;;23.30;11.60;;;;;;;-6.92;66.35;100170.86;105916;1280;22635;-72
2022/03/11 03:51:20;;;;;;;23.00;10.60;;;;;;;-6.90;66.99;100170.39;105646;1277;138998;-75
2022/03/11 03:53:46;;;;;;;20.70;10.10;;;;;;;-6.87;66.43;100163.87;105720;1277;25632;-74
2022/03/11 03:56:12;;;;;;;18.20;9.50;;;;;;;-6.83;66.78;100165.92;105738;1278;24632;-73
2022/03/11 03:58:39;;;;;;;24.10;10.30;;;;;;;-6.79;66.33;100172.27;105708;1277;138064;-72
2022/03/11 04:01:06;;;;;;;24.00;10.80;;;;;;;-6.76;66.68;100174.37;105836;1278;24555;-72
2022/03/11 04:03:33;;;;;;;24.20;10.70;;;;;;;-6.75;66.71;100176.24;105672;1278;138229;-72
2022/03/11 04:06:02;;;;;;;26.70;10.20;;;;;;;-6.75;66.30;100173.58;106036;1277;22552;-72
2022/03/11 04:08:30;;;;;;;25.60;10.00;;;;;;;-6.75;66.34;100172.87;106087;1277;25375;-72
2022/03/11 04:10:56;;;;;;;26.70;11.30;;;;;;;-6.76;66.41;100177.36;105723;1278;138691;-72
2022/03/11 04:13:22;;;;;;;25.10;10.60;;;;;;;-6.80;66.04;100176.70;105971;1280;22740;-72
2022/03/11 04:15:52;;;;;;;29.70;10.70;;;;;;;-6.83;66.23;100180.06;105806;1280;138453;-72
2022/03/11 04:18:20;;;;;;;20.80;8.70;;;;;;;-6.86;66.13;100176.17;106197;1277;22684;-71
2022/03/11 04:20:46;;;;;;;29.80;11.20;;;;;;;-6.92;66.49;100175.65;105902;1278;22587;-71
2022/03/11 04:23:12;;;;;;;31.30;12.10;;;;;;;-6.98;66.49;100175.70;105841;1280;138169;-74
2022/03/11 04:25:39;;;;;;;20.40;8.80;;;;;;;-7.05;66.49;100173.05;106073;1277;23247;-72
2022/03/11 04:28:06;;;;;;;22.20;10.50;;;;;;;-7.10;66.73;100174.42;105888;1278;138084;-71
2022/03/11 04:30:32;;;;;;;27.00;11.60;;;;;;;-7.15;66.28;100177.15;105969;1280;24272;-74
2022/03/11 04:32:58;;;;;;;26.20;10.90;;;;;;;-7.16;66.77;100176.49;105894;1277;139241;-72
2022/03/11 04:35:24;;;;;;;25.00;11.70;;;;;;;-7.15;67.13;100178.77;105960;1278;22714;-72
2022/03/11 04:37:51;;;;;;;23.60;11.60;;;;;;;-7.14;66.96;100182.08;106031;1277;22716;-74
2022/03/11 04:40:17;;;;;;;26.70;10.50;;;;;;;-7.13;67.36;100183.57;105802;1280;139537;-71
2022/03/11 04:42:43;;;;;;;25.30;11.20;;;;;;;-7.09;67.35;100183.89;106028;1277;24286;-74
2022/03/11 04:45:10;;;;;;;23.40;10.90;;;;;;;-7.05;67.00;100182.94;105754;1278;138778;-71
2022/03/11 04:47:36;;;;;;;26.70;12.10;;;;;;;-7.01;67.28;100178.30;106037;1278;24458;-74
2022/03/11 04:50:03;;;;;;;30.90;11.80;;;;;;;-6.96;67.24;100176.79;105949;1277;22770;-71
2022/03/11 04:52:29;;;;;;;31.40;14.10;;;;;;;-6.93;67.07;100175.36;105770;1278;139148;-73
2022/03/11 04:54:56;;;;;;;51.80;19.70;;;;;;;-6.89;67.31;100175.98;106100;1277;25257;-71
2022/03/11 04:57:22;;;;;;;46.30;20.00;;;;;;;-6.85;66.95;100175.60;106012;1277;138723;-71
2022/03/11 04:59:48;;;;;;;37.80;17.10;;;;;;;-6.82;66.72;100172.77;106117;1277;22569;-74
2022/03/11 05:02:27;;;;;;;39.60;17.20;;;;;;;-6.79;67.13;100176.12;106197;1277;22753;-72
2022/03/11 05:04:54;;;;;;;31.50;14.20;;;;;;;-6.78;66.91;100166.70;105914;1277;138812;-72
2022/03/11 05:07:20;;;;;;;24.80;12.40;;;;;;;-6.76;66.60;100171.35;106163;1277;22630;-73
2022/03/11 05:09:47;;;;;;;26.60;11.10;;;;;;;-6.77;67.19;100168.27;105778;1280;139079;-72
2022/03/11 05:12:13;;;;;;;26.60;12.20;;;;;;;-6.79;66.63;100170.63;105962;1278;22592;-72
2022/03/11 05:14:40;;;;;;;25.00;11.80;;;;;;;-6.82;66.85;100170.86;105819;1277;23070;-72
2022/03/11 05:17:06;;;;;;;23.80;10.70;;;;;;;-6.88;66.81;100171.00;105784;1280;138278;-72
2022/03/11 05:19:33;;;;;;;30.40;13.00;;;;;;;-6.93;67.20;100175.02;105978;1277;24287;-72
2022/03/11 05:21:59;;;;;;;30.30;12.70;;;;;;;-6.96;67.36;100175.53;106128;1277;138009;-72
2022/03/11 05:24:25;;;;;;;33.90;13.80;;;;;;;-6.99;67.43;100177.99;105987;1277;22548;-72
2022/03/11 05:26:52;;;;;;;27.80;13.00;;;;;;;-7.01;67.32;100181.69;105987;1278;23502;-71
2022/03/11 05:29:18;;;;;;;29.40;11.90;;;;;;;-7.04;67.52;100184.52;105992;1278;138107;-72
2022/03/11 05:31:49;;;;;;;35.30;13.10;;;;;;;-7.08;67.42;100186.84;106223;1277;24360;-72
2022/03/11 05:34:16;;;;;;;38.20;14.90;;;;;;;-7.11;67.74;100186.83;105604;1280;138599;-71
2022/03/11 05:36:42;;;;;;;32.30;14.50;;;;;;;-7.11;68.25;100190.72;105900;1277;22774;-72
2022/03/11 05:39:08;;;;;;;31.40;13.20;;;;;;;-7.08;67.59;100190.18;105583;1277;140163;-72
2022/03/11 05:41:34;;;;;;;28.30;13.30;;;;;;;-7.04;68.09;100197.00;105999;1277;23071;-71
2022/03/11 05:44:01;;;;;;;26.10;13.00;;;;;;;-6.98;68.11;100197.02;106187;1277;25422;-71
2022/03/11 05:46:45;;;;;;;31.60;12.80;;;;;;;-6.89;67.66;100199.64;106040;1277;138936;-71
2022/03/11 05:49:12;;;;;;;29.30;12.60;;;;;;;-6.81;67.93;100198.33;105950;1278;25059;-71
2022/03/11 05:51:39;;;;;;;33.10;12.30;;;;;;;-6.73;67.90;100200.67;105913;1280;139139;-71
2022/03/11 05:54:06;;;;;;;27.80;12.70;;;;;;;-6.65;67.40;100198.97;105780;1280;22594;-71
2022/03/11 05:56:34;;;;;;;30.30;12.00;;;;;;;-6.57;67.30;100200.38;105782;1280;25379;-71
2022/03/11 05:59:01;;;;;;;30.70;13.10;;;;;;;-6.48;66.95;100201.80;105736;1278;137889;-71
2022/03/11 06:01:28;;;;;;;30.00;12.40;;;;;;;-6.43;67.29;100205.06;105974;1277;22547;-71
2022/03/11 06:03:55;;;;;;;36.30;12.70;;;;;;;-6.41;66.79;100205.48;105869;1278;138085;-72
2022/03/11 06:06:21;;;;;;;28.10;11.40;;;;;;;-6.40;66.90;100208.07;106039;1280;24477;-72
2022/03/11 06:08:48;;;;;;;34.70;13.70;;;;;;;-6.41;66.71;100202.61;105838;1280;24221;-72
2022/03/11 06:11:14;;;;;;;25.20;12.80;;;;;;;-6.40;66.91;100209.25;105906;1277;138049;-71
2022/03/11 06:13:41;;;;;;;28.30;12.30;;;;;;;-6.38;66.67;100208.98;105973;1277;25831;-71
2022/03/11 06:16:07;;;;;;;24.40;10.50;;;;;;;-6.37;66.32;100212.44;105976;1278;138285;-71
2022/03/11 06:18:33;;;;;;;22.80;11.10;;;;;;;-6.36;66.33;100216.45;105585;1280;25298;-71
2022/03/11 06:20:59;;;;;;;25.60;11.10;;;;;;;-6.35;66.43;100215.16;105835;1280;138857;-71
2022/03/11 06:23:26;;;;;;;27.20;11.70;;;;;;;-6.34;66.05;100214.37;105799;1280;24851;-71
2022/03/11 06:25:52;;;;;;;27.00;11.50;;;;;;;-6.31;66.46;100208.91;105808;1280;22572;-71
2022/03/11 06:28:20;;;;;;;29.20;12.60;;;;;;;-6.29;66.38;100210.70;105694;1280;138508;-71
2022/03/11 06:30:47;;;;;;;32.90;11.60;;;;;;;-6.26;66.08;100209.99;105807;1279;22552;-71
2022/03/11 06:33:14;;;;;;;25.40;10.80;;;;;;;-6.23;66.22;100214.95;105623;1280;138338;-71
2022/03/11 06:35:40;;;;;;;26.50;10.40;;;;;;;-6.18;66.54;100221.02;105651;1280;24411;-71
2022/03/11 06:38:06;;;;;;;23.20;9.60;;;;;;;-6.15;65.96;100224.16;105817;1280;24286;-71
2022/03/11 06:40:33;;;;;;;22.70;10.60;;;;;;;-6.10;66.14;100226.34;105678;1280;137877;-71
2022/03/11 06:43:00;;;;;;;24.60;11.70;;;;;;;-6.05;66.15;100230.63;105837;1280;22554;-71
2022/03/11 06:45:26;;;;;;;27.20;11.80;;;;;;;-6.00;65.85;100230.16;106016;1280;138571;-71
2022/03/11 06:47:53;;;;;;;28.20;12.70;;;;;;;-5.92;65.91;100229.63;105887;1280;24279;-72
2022/03/11 06:50:19;;;;;;;30.00;12.10;;;;;;;-5.81;65.50;100225.58;105974;1280;30748;-72
2022/03/11 06:52:46;;;;;;;24.20;11.30;;;;;;;-5.69;65.85;100227.30;105852;1280;138609;-72
2022/03/11 06:55:15;;;;;;;24.10;11.80;;;;;;;-5.56;65.34;100226.46;106003;1279;24378;-72
2022/03/11 06:57:41;;;;;;;20.80;10.40;;;;;;;-5.42;65.24;100228.79;105799;1280;138821;-72
2022/03/11 07:00:09;;;;;;;24.00;11.50;;;;;;;-5.27;64.56;100226.96;106065;1277;22556;-72
2022/03/11 07:02:37;;;;;;;27.70;12.40;;;;;;;-5.14;64.21;100233.32;106131;1277;22762;-72
2022/03/11 07:05:04;;;;;;;21.90;9.70;;;;;;;-5.01;64.18;100233.70;105882;1277;138238;-72
2022/03/11 07:07:31;;;;;;;25.10;10.30;;;;;;;-4.89;63.72;100237.01;105992;1278;24185;-72
2022/03/11 07:09:57;;;;;;;22.40;10.70;;;;;;;-4.78;63.86;100241.76;105920;1278;137847;-72
2022/03/11 07:12:24;;;;;;;22.40;10.90;;;;;;;-4.69;63.65;100241.84;106184;1277;25410;-72
2022/03/11 07:14:50;;;;;;;25.80;10.90;;;;;;;-4.61;63.17;100243.47;106032;1278;24233;-71
2022/03/11 07:17:16;;;;;;;23.80;9.40;;;;;;;-4.55;63.29;100238.62;105985;1278;137919;-72
2022/03/11 07:19:43;;;;;;;22.50;11.00;;;;;;;-4.47;62.76;100242.70;106125;1278;22605;-72
2022/03/11 07:22:09;;;;;;;24.00;9.40;;;;;;;-4.43;62.60;100242.02;106291;1277;138518;-72
2022/03/11 07:24:35;;;;;;;23.90;10.50;;;;;;;-4.37;62.35;100241.68;105994;1278;22689;-72
2022/03/11 07:27:02;;;;;;;23.80;10.50;;;;;;;-4.33;61.78;100239.09;106061;1278;138186;-72
2022/03/11 07:29:28;;;;;;;21.30;9.80;;;;;;;-4.29;61.60;100239.89;106095;1277;22557;-72
2022/03/11 07:31:54;;;;;;;27.20;10.30;;;;;;;-4.26;60.98;100234.18;106133;1278;22671;-72
2022/03/11 07:34:23;;;;;;;23.90;10.50;;;;;;;-4.22;61.42;100232.46;105899;1278;138096;-72
2022/03/11 07:36:50;;;;;;;23.00;8.70;;;;;;;-4.18;61.28;100235.02;106033;1278;22635;-71
2022/03/11 07:39:16;;;;;;;22.10;11.70;;;;;;;-4.15;60.84;100232.48;106148;1278;139053;-72
2022/03/11 07:41:43;;;;;;;22.00;11.00;;;;;;;-4.10;60.92;100235.18;106077;1278;25264;-71
2022/03/11 07:44:09;;;;;;;21.20;10.00;;;;;;;-4.05;60.40;100232.55;105991;1277;22599;-73
2022/03/11 07:46:36;;;;;;;24.70;10.30;;;;;;;-4.00;60.56;100229.38;105966;1280;138516;-71
2022/03/11 07:49:03;;;;;;;24.10;11.50;;;;;;;-3.95;60.65;100231.45;106268;1277;26833;-73
2022/03/11 07:51:30;;;;;;;21.40;9.20;;;;;;;-3.88;60.10;100231.30;106024;1278;138349;-72
2022/03/11 07:53:57;;;;;;;22.10;9.50;;;;;;;-3.81;59.83;100231.92;106223;1277;22596;-72
2022/03/11 07:56:24;;;;;;;24.40;10.30;;;;;;;-3.78;59.59;100232.23;105967;1278;25252;-72
2022/03/11 07:58:50;;;;;;;16.70;8.40;;;;;;;-3.72;59.40;100232.69;106026;1277;138528;-72
2022/03/11 08:01:17;;;;;;;18.40;8.40;;;;;;;-3.66;58.65;100228.55;106335;1280;22649;-73
2022/03/11 08:03:43;;;;;;;21.40;8.60;;;;;;;-3.61;58.40;100231.34;106101;1278;138051;-73
2022/03/11 08:06:11;;;;;;;23.80;8.20;;;;;;;-3.55;58.24;100224.90;106144;1278;22583;-73
2022/03/11 08:08:39;;;;;;;19.60;8.80;;;;;;;-3.49;58.09;100227.30;106175;1278;26552;-72
2022/03/11 08:11:06;;;;;;;14.40;7.80;;;;;;;-3.44;57.34;100228.02;105920;1280;138067;-72
2022/03/11 08:13:34;;;;;;;18.30;7.80;;;;;;;-3.40;56.87;100228.80;106326;1277;23955;-72
2022/03/11 08:16:01;;;;;;;15.40;7.90;;;;;;;-3.35;56.74;100221.71;105955;1278;137934;-72
2022/03/11 08:18:27;;;;;;;16.80;7.90;;;;;;;-3.29;56.44;100222.66;105933;1280;22590;-72
2022/03/11 08:20:54;;;;;;;16.40;7.90;;;;;;;-3.24;56.26;100221.59;106043;1278;22711;-72
2022/03/11 08:23:21;;;;;;;16.70;8.50;;;;;;;-3.18;55.68;100225.07;105984;1277;137782;-72
2022/03/11 08:25:48;;;;;;;16.50;7.60;;;;;;;-3.13;54.94;100228.92;105833;1280;22576;-72
2022/03/11 08:28:16;;;;;;;14.90;7.70;;;;;;;-3.07;55.15;100224.98;105933;1277;137828;-74
2022/03/11 08:30:43;;;;;;;16.20;7.20;;;;;;;-3.01;54.76;100227.54;106004;1278;23970;-72
2022/03/11 08:33:10;;;;;;;17.70;7.00;;;;;;;-2.96;54.55;100224.83;106115;1278;137976;-72
2022/03/11 08:35:37;;;;;;;13.50;7.30;;;;;;;-2.89;53.91;100228.78;106045;1277;25364;-72
2022/03/11 08:38:06;;;;;;;12.20;6.70;;;;;;;-2.84;52.58;100227.16;106124;1278;24235;-72
2022/03/11 08:40:35;;;;;;;15.60;6.80;;;;;;;-2.79;52.73;100229.09;105767;1280;137998;-72
2022/03/11 08:43:03;;;;;;;15.40;6.70;;;;;;;-2.72;52.84;100231.26;105932;1277;25269;-72
2022/03/11 08:45:30;;;;;;;11.10;6.10;;;;;;;-2.64;52.48;100232.58;106349;1278;138697;-72
2022/03/11 08:47:56;;;;;;;12.10;6.00;;;;;;;-2.54;52.58;100231.48;106174;1278;24312;-72
2022/03/11 08:50:23;;;;;;;13.10;6.60;;;;;;;-2.44;52.24;100234.44;105980;1280;23712;-72
2022/03/11 08:52:51;;;;;;;15.00;6.80;;;;;;;-2.35;52.35;100233.92;106257;1278;138241;-72
2022/03/11 08:55:17;;;;;;;14.70;5.10;;;;;;;-2.24;51.55;100231.88;106487;1280;22602;-72
2022/03/11 08:57:52;;;;;;;11.80;6.10;;;;;;;-2.14;50.79;100236.23;106084;1280;138191;-72
2022/03/11 09:00:20;;;;;;;13.50;6.90;;;;;;;-2.06;50.12;100233.11;106732;1278;22598;-72
2022/03/11 09:02:47;;;;;;;11.10;5.60;;;;;;;-1.99;48.95;100231.52;106410;1280;30326;-72
2022/03/11 09:05:17;;;;;;;13.60;5.70;;;;;;;-1.92;49.04;100231.48;106595;1280;138039;-72
2022/03/11 09:07:48;;;;;;;10.90;5.90;;;;;;;-1.84;48.33;100230.83;106522;1278;22643;-72
2022/03/11 09:10:15;;;;;;;11.30;4.60;;;;;;;-1.77;48.25;100226.58;106277;1278;137878;-72
2022/03/11 09:12:41;;;;;;;10.00;4.40;;;;;;;-1.68;47.31;100224.09;106355;1280;22551;-72
2022/03/11 09:15:10;;;;;;;15.40;5.10;;;;;;;-1.63;46.23;100218.30;105698;1280;241106;-72
2022/03/11 09:17:36;;;;;;;8.10;4.20;;;;;;;-1.52;46.82;100221.19;106510;1279;24513;-72
2022/03/11 09:20:06;;;;;;;9.00;4.70;;;;;;;-1.42;44.65;100221.30;106258;1280;22569;-72
2022/03/11 09:22:34;;;;;;;10.30;4.90;;;;;;;-1.37;44.55;100214.63;106361;1280;138157;-72
2022/03/11 09:25:04;;;;;;;8.30;4.50;;;;;;;-1.31;44.75;100213.08;106101;1280;23094;-72
2022/03/11 09:27:30;;;;;;;;;;;;;;;-1.26;43.80;100214.27;106332;1278;138013;-72
2022/03/11 09:29:57;;;;;;;9.50;4.80;;;;;;;-1.20;43.30;100214.29;107007;1278;22690;-72
2022/03/11 09:32:25;;;;;;;11.00;5.30;;;;;;;-1.14;43.98;100214.71;106215;1278;25316;-72
2022/03/11 09:34:53;;;;;;;10.20;4.90;;;;;;;-1.04;43.71;100215.12;105880;1280;137965;-72
2022/03/11 09:37:19;;;;;;;12.90;5.30;;;;;;;-0.94;43.55;100211.83;106211;1280;23675;-72
2022/03/11 09:40:01;;;;;;;10.20;5.20;;;;;;;-0.85;43.04;100215.05;106643;1278;137924;-72
2022/03/11 09:42:28;;;;;;;10.20;6.20;;;;;;;-0.78;42.67;100215.81;106246;1278;22558;-72
2022/03/11 09:44:56;;;;;;;9.40;5.20;;;;;;;-0.71;42.68;100214.59;106161;1278;22619;-72
2022/03/11 09:47:23;;;;;;;9.80;4.50;;;;;;;-0.65;42.92;100209.96;106307;1280;137845;-72
2022/03/11 09:49:54;;;;;;;9.10;5.20;;;;;;;-0.59;42.84;100211.20;106097;1278;24319;-73
2022/03/11 09:52:20;;;;;;;8.80;4.40;;;;;;;-0.49;42.75;100207.73;106229;1280;137778;-72
2022/03/11 09:54:47;;;;;;;8.80;5.20;;;;;;;-0.40;41.84;100206.79;105960;1280;25421;-72
2022/03/11 09:57:19;;;;;;;10.90;5.30;;;;;;;-0.34;41.33;100204.45;106104;1279;138020;-72
2022/03/11 09:59:45;;;;;;;11.30;5.30;;;;;;;-0.30;41.06;100203.56;106067;1279;24312;-72
2022/03/11 10:02:14;;;;;;;10.70;5.20;;;;;;;-0.26;41.01;100202.73;106032;1280;25339;-72
2022/03/11 10:04:58;;;;;;;9.30;5.20;;;;;;;-0.16;41.26;100204.90;105848;1278;137815;-72
2022/03/11 10:07:26;;;;;;;11.50;5.60;;;;;;;-0.07;40.27;100202.10;106291;1278;22541;-72
2022/03/11 10:09:54;;;;;;;10.90;5.60;;;;;;;0.02;40.17;100197.60;105903;1280;137754;-73
2022/03/11 10:12:28;;;;;;;11.50;5.10;;;;;;;0.11;39.61;100195.82;106081;1278;24359;-73
2022/03/11 10:14:56;;;;;;;8.60;4.70;;;;;;;0.22;39.69;100198.26;106223;1278;22572;-73
2022/03/11 10:17:23;;;;;;;21.50;5.00;;;;;;;0.28;39.42;100198.61;105937;1280;137209;-73
2022/03/11 10:19:58;;;;;;;9.00;4.80;;;;;;;0.35;39.30;100193.67;106264;1280;22564;-73
2022/03/11 10:22:25;;;;;;;9.00;4.60;;;;;;;0.48;39.00;100194.30;105965;1278;137925;-74
2022/03/11 10:24:52;;;;;;;7.30;4.20;;;;;;;0.58;39.37;100198.03;106176;1280;22580;-73
2022/03/11 10:27:18;;;;;;;8.40;4.60;;;;;;;0.70;39.34;100196.80;105859;1280;138458;-72
2022/03/11 10:29:44;;;;;;;11.00;4.30;;;;;;;0.81;38.57;100196.34;105918;1280;24230;-72
2022/03/11 10:32:10;;;;;;;10.10;5.30;;;;;;;0.87;38.22;100199.36;105976;1280;22564;-75
2022/03/11 10:34:37;;;;;;;9.20;4.50;;;;;;;0.96;38.46;100196.55;105920;1278;137818;-75
2022/03/11 10:37:12;;;;;;;9.40;4.70;;;;;;;1.06;37.21;100198.52;105875;1278;22615;-74
2022/03/11 10:39:43;;;;;;;9.40;4.80;;;;;;;1.13;37.70;100197.72;106157;1278;137579;-74
2022/03/11 10:42:27;;;;;;;10.10;4.80;;;;;;;1.22;37.81;100193.34;105937;1278;24431;-74
2022/03/11 10:45:03;;;;;;;7.70;4.20;;;;;;;1.28;37.30;100187.38;106161;1278;22669;-73
2022/03/11 10:47:32;;;;;;;12.00;4.70;;;;;;;1.30;36.81;100187.69;105708;1278;137565;-75
2022/03/11 10:50:04;;;;;;;8.40;4.50;;;;;;;1.33;36.53;100187.23;106100;1280;22570;-75
2022/03/11 10:52:39;;;;;;;12.20;4.80;;;;;;;1.36;37.13;100187.23;105965;1280;137806;-73
2022/03/11 10:55:19;;;;;;;8.30;4.30;;;;;;;1.40;37.67;100190.36;105865;1280;30372;-73
2022/03/11 10:57:46;;;;;;;7.50;4.50;;;;;;;1.51;37.13;100187.23;105774;1278;137951;-73
2022/03/11 11:00:25;;;;;;;6.40;4.00;;;;;;;1.59;36.75;100190.93;106048;1280;25362;-73
2022/03/11 11:02:53;;;;;;;12.10;3.40;;;;;;;1.68;36.02;100187.24;106184;1278;22528;-73
2022/03/11 11:05:21;;;;;;;6.50;3.30;;;;;;;1.74;36.35;100185.92;106094;1278;137565;-73
2022/03/11 11:07:48;;;;;;;5.50;3.20;;;;;;;1.84;35.40;100181.06;106147;1278;22582;-73